Tryon, Oklahoma
Current Conditions -  °F | °C
As of 3:35 PM on Saturday 25 Oct 2014 (Local Time) from KCUH Reporting Station
Clear Clear  
Wind Chill: 90°   Ceiling: Unl
Heat Index: 92°   Visibility: 10mi
Dew Point: 66°   Wind: 3mph
Humidity: 46%   Direction: 190°S
Pressure: 30.02"   Gusts: NA
Location:  35.87°N, 96.96°W
Report Text: KCUH 252035Z AUTO 19003KT 10SM CLR 32/19 A3002 RMK AO2
Loading
Personal Weather Stations






























Interactive Weather Map
Tropical Storm Tracking
New forecast layout! Learn more

10-Day Weather Forecast

Advertisements
Track Severe Weather on mobile